createdAt,value
2019-02-26T00:01:18.492Z,61.81
2019-02-26T00:04:04.536Z,61.68
2019-02-26T00:06:54.038Z,61.54
2019-02-26T00:09:45.039Z,61.84
2019-02-26T00:12:35.475Z,61.79
2019-02-26T00:15:23.512Z,61.96
2019-02-26T00:18:13.976Z,62.19
2019-02-26T00:21:03.310Z,62.22
2019-02-26T00:23:53.170Z,61.99
2019-02-26T00:26:43.493Z,62.45
2019-02-26T00:29:32.502Z,62.08
2019-02-26T00:32:22.103Z,62.27
2019-02-26T00:35:10.767Z,62.17
2019-02-26T00:37:59.019Z,62.44
2019-02-26T00:40:47.662Z,62.62
2019-02-26T00:43:37.090Z,62.42
2019-02-26T00:46:27.862Z,62.17
2019-02-26T00:49:15.291Z,62.21
2019-02-26T00:52:04.585Z,62.09
2019-02-26T00:54:57.442Z,62.34
2019-02-26T00:57:44.599Z,62.54
2019-02-26T01:00:35.342Z,62.97
2019-02-26T01:03:23.951Z,62.71
2019-02-26T01:06:13.119Z,62.46
2019-02-26T01:09:03.635Z,62.18
2019-02-26T01:11:53.975Z,62.10
2019-02-26T01:14:44.083Z,62.09
2019-02-26T01:17:33.355Z,62.11
2019-02-26T01:20:24.852Z,62.24
2019-02-26T01:23:12.608Z,62.43
2019-02-26T01:26:01.219Z,62.57
2019-02-26T01:28:51.197Z,62.74
2019-02-26T01:31:40.403Z,62.95
2019-02-26T01:34:29.456Z,62.92
2019-02-26T01:37:18.421Z,62.99
2019-02-26T01:40:10.839Z,63.16
2019-02-26T01:43:00.485Z,63.16
2019-02-26T01:45:50.643Z,63.30
2019-02-26T01:48:39.514Z,63.32
2019-02-26T01:51:28.720Z,63.34
2019-02-26T01:54:17.306Z,63.64
2019-02-26T01:57:08.566Z,63.58
2019-02-26T01:59:56.023Z,63.61
2019-02-26T02:02:44.268Z,63.67
2019-02-26T02:05:33.319Z,63.82
2019-02-26T02:08:24.873Z,63.79
2019-02-26T02:11:12.915Z,63.64
2019-02-26T02:14:01.987Z,63.68
2019-02-26T02:16:51.337Z,63.78
2019-02-26T02:19:40.313Z,63.73
2019-02-26T02:22:29.602Z,63.87
2019-02-26T02:25:18.490Z,63.91
2019-02-26T02:28:07.165Z,63.91
2019-02-26T02:30:55.699Z,64.00
2019-02-26T02:33:44.706Z,64.27
2019-02-26T02:36:33.316Z,64.29
2019-02-26T02:39:24.002Z,64.22
2019-02-26T02:42:14.077Z,64.34
2019-02-26T02:45:05.073Z,64.65
2019-02-26T02:47:57.784Z,64.70
2019-02-26T02:50:42.738Z,64.92
2019-02-26T02:53:32.370Z,64.67
2019-02-26T02:56:21.172Z,64.50
2019-02-26T02:59:11.289Z,64.37
2019-02-26T03:01:59.764Z,64.44
2019-02-26T03:04:48.521Z,64.38
2019-02-26T03:07:37.476Z,64.16
2019-02-26T03:10:30.836Z,64.13
2019-02-26T03:13:16.918Z,64.41
2019-02-26T03:16:06.753Z,64.52
2019-02-26T03:18:55.612Z,64.56
2019-02-26T03:21:46.740Z,64.75
2019-02-26T03:24:35.954Z,64.74
2019-02-26T03:27:27.797Z,64.60
2019-02-26T03:30:26.154Z,64.60
2019-02-26T03:33:07.897Z,64.62
2019-02-26T03:35:56.350Z,64.97
2019-02-26T03:38:48.346Z,64.91
2019-02-26T03:41:35.882Z,64.29
2019-02-26T03:44:29.626Z,64.30
2019-02-26T03:47:16.281Z,64.32
2019-02-26T03:50:08.589Z,64.54
2019-02-26T03:52:56.046Z,64.36
2019-02-26T03:55:44.653Z,64.43
2019-02-26T03:58:33.322Z,64.42
2019-02-26T04:01:22.469Z,64.63
2019-02-26T04:04:11.514Z,64.62
2019-02-26T04:07:01.443Z,64.53
2019-02-26T04:09:53.173Z,64.32
2019-02-26T04:12:42.341Z,64.22
2019-02-26T04:15:32.831Z,64.37
2019-02-26T04:18:20.973Z,64.47
2019-02-26T04:21:12.202Z,64.58
2019-02-26T04:24:01.094Z,64.48
2019-02-26T04:27:24.012Z,64.46
2019-02-26T04:30:38.930Z,64.54
2019-02-26T04:33:59.550Z,64.52
2019-02-26T04:37:10.101Z,64.75
2019-02-26T04:40:22.677Z,64.95
2019-02-26T04:43:51.969Z,65.22
2019-02-26T04:46:44.208Z,65.52
2019-02-26T04:49:34.238Z,65.19
2019-02-26T04:52:22.621Z,65.33
2019-02-26T04:55:11.143Z,65.32
2019-02-26T04:57:59.640Z,65.33
2019-02-26T05:00:48.421Z,65.19
2019-02-26T05:03:37.292Z,65.24
2019-02-26T05:06:25.443Z,65.31
2019-02-26T05:09:13.560Z,65.57
2019-02-26T05:12:02.552Z,65.56
2019-02-26T05:14:50.921Z,65.49
2019-02-26T05:17:40.026Z,65.29
2019-02-26T05:20:28.737Z,65.32
2019-02-26T05:23:16.989Z,65.17
2019-02-26T05:26:08.225Z,64.95
2019-02-26T05:28:55.787Z,64.93
2019-02-26T05:31:44.381Z,64.88
2019-02-26T05:34:33.091Z,64.88
2019-02-26T05:37:22.126Z,65.20
2019-02-26T05:40:13.355Z,65.13
2019-02-26T05:43:01.880Z,65.16
2019-02-26T05:45:54.039Z,65.46
2019-02-26T05:48:42.907Z,65.59
2019-02-26T05:51:32.796Z,65.55
2019-02-26T05:54:24.492Z,65.56
2019-02-26T05:57:25.893Z,65.71
2019-02-26T06:00:04.561Z,65.73
2019-02-26T06:02:54.896Z,65.69
2019-02-26T06:05:46.005Z,65.76
2019-02-26T06:08:35.887Z,65.78
2019-02-26T06:11:28.359Z,65.76
2019-02-26T06:14:14.107Z,65.72
2019-02-26T06:17:02.942Z,65.74
2019-02-26T06:19:51.528Z,65.89
2019-02-26T06:22:39.964Z,65.92
2019-02-26T06:25:28.483Z,65.83
2019-02-26T06:28:18.569Z,65.67
2019-02-26T06:31:07.283Z,65.58
2019-02-26T06:33:56.506Z,65.60
2019-02-26T06:36:46.590Z,65.45
2019-02-26T06:39:36.306Z,65.56
2019-02-26T06:42:25.080Z,65.63
2019-02-26T06:45:16.217Z,65.64
2019-02-26T06:48:03.396Z,65.59
2019-02-26T06:50:52.454Z,65.38
2019-02-26T06:53:45.071Z,65.37
2019-02-26T06:56:34.447Z,65.75
2019-02-26T06:59:29.569Z,65.65
2019-02-26T07:02:19.253Z,65.83
2019-02-26T07:05:09.781Z,65.79
2019-02-26T07:07:59.577Z,65.83
2019-02-26T07:10:49.140Z,65.98
2019-02-26T07:13:39.173Z,65.89
2019-02-26T07:16:27.338Z,65.95
2019-02-26T07:19:16.748Z,66.05
2019-02-26T07:22:07.713Z,66.07
2019-02-26T07:24:55.351Z,66.22
2019-02-26T07:27:43.682Z,66.10
2019-02-26T07:30:32.608Z,66.01
2019-02-26T07:33:22.645Z,66.00
2019-02-26T07:36:10.911Z,66.29
2019-02-26T07:38:59.971Z,66.33
2019-02-26T07:41:49.314Z,66.35
2019-02-26T07:44:38.564Z,66.46
2019-02-26T07:47:28.886Z,66.30
2019-02-26T07:50:17.730Z,66.10
2019-02-26T07:53:06.860Z,66.24
2019-02-26T07:55:56.864Z,66.43
2019-02-26T07:58:45.784Z,66.12
2019-02-26T08:01:35.437Z,65.73
2019-02-26T08:04:24.699Z,65.62
2019-02-26T08:07:13.051Z,65.65
2019-02-26T08:10:01.237Z,65.49
2019-02-26T08:12:49.824Z,65.58
2019-02-26T08:15:39.921Z,65.52
2019-02-26T08:18:28.707Z,65.62
2019-02-26T08:21:17.671Z,65.43
2019-02-26T08:24:07.355Z,65.13
2019-02-26T08:26:55.745Z,64.84
2019-02-26T08:29:43.820Z,64.49
2019-02-26T08:32:32.223Z,64.32
2019-02-26T08:35:20.796Z,64.09
2019-02-26T08:38:09.809Z,63.75
2019-02-26T08:40:58.155Z,63.38
2019-02-26T08:43:49.616Z,63.18
2019-02-26T08:46:37.840Z,62.96
2019-02-26T08:49:27.501Z,62.80
2019-02-26T08:52:17.515Z,61.83
2019-02-26T08:55:07.205Z,61.67
2019-02-26T08:57:56.642Z,61.08
2019-02-26T09:00:45.721Z,60.97
2019-02-26T09:03:40.721Z,60.45
2019-02-26T09:06:24.487Z,59.45
2019-02-26T09:09:13.279Z,59.34
2019-02-26T09:12:03.220Z,59.15
2019-02-26T09:14:52.388Z,59.14
2019-02-26T09:17:42.143Z,58.82
2019-02-26T09:20:31.400Z,58.97
2019-02-26T09:23:21.174Z,58.71
2019-02-26T09:26:09.894Z,58.25
2019-02-26T09:28:58.966Z,57.99
2019-02-26T09:31:48.108Z,57.87
2019-02-26T09:34:37.974Z,57.74
2019-02-26T09:37:26.635Z,57.50
2019-02-26T09:40:17.190Z,56.82
2019-02-26T09:43:06.611Z,56.08
2019-02-26T09:45:54.892Z,55.76
2019-02-26T09:48:45.300Z,55.40
2019-02-26T09:51:35.312Z,55.10
2019-02-26T09:54:23.480Z,54.61
2019-02-26T09:57:15.547Z,53.87
2019-02-26T10:00:03.342Z,53.13
2019-02-26T10:02:52.239Z,53.69
2019-02-26T10:05:41.503Z,52.67
2019-02-26T10:08:30.719Z,53.02
2019-02-26T10:11:21.225Z,53.53
2019-02-26T10:14:10.311Z,50.78
2019-02-26T10:16:59.685Z,52.14
2019-02-26T10:19:48.441Z,50.51
2019-02-26T10:22:38.507Z,51.25
2019-02-26T10:25:31.077Z,50.11
2019-02-26T10:28:18.992Z,49.08
2019-02-26T10:31:09.623Z,50.17
2019-02-26T10:33:57.416Z,50.63
2019-02-26T10:36:48.690Z,48.78
2019-02-26T10:39:35.945Z,48.16
2019-02-26T10:42:24.366Z,49.45
2019-02-26T10:45:13.674Z,48.71
2019-02-26T10:48:01.932Z,48.80
2019-02-26T10:50:51.872Z,47.11
2019-02-26T10:53:40.856Z,47.55
2019-02-26T10:56:30.693Z,46.44
2019-02-26T10:59:20.143Z,43.91
2019-02-26T11:02:08.849Z,45.54
2019-02-26T11:04:57.441Z,46.88
2019-02-26T11:07:45.975Z,45.93
2019-02-26T11:10:39.322Z,46.18
2019-02-26T11:13:25.642Z,43.54
2019-02-26T11:16:22.905Z,42.37
2019-02-26T11:19:06.980Z,42.06
2019-02-26T11:21:57.624Z,43.60
2019-02-26T11:24:44.895Z,42.91
2019-02-26T11:27:35.244Z,42.97
2019-02-26T11:30:25.849Z,41.36
2019-02-26T11:33:15.599Z,39.42
2019-02-26T11:36:05.574Z,39.19
2019-02-26T11:38:54.443Z,38.12
2019-02-26T11:41:43.176Z,38.29
2019-02-26T11:44:32.067Z,36.95
2019-02-26T11:47:20.650Z,35.31
2019-02-26T11:50:15.235Z,37.20
2019-02-26T11:53:03.959Z,37.43
2019-02-26T11:55:54.481Z,37.28
2019-02-26T11:58:42.537Z,38.57
2019-02-26T12:01:32.225Z,38.38
2019-02-26T12:04:20.833Z,37.41
2019-02-26T12:07:09.941Z,36.56
2019-02-26T12:10:04.685Z,38.54
2019-02-26T12:12:51.350Z,36.13
2019-02-26T12:15:42.738Z,36.52
2019-02-26T12:18:29.888Z,36.16
2019-02-26T12:21:18.355Z,37.44
2019-02-26T12:24:09.231Z,36.98
2019-02-26T12:26:57.208Z,36.73
2019-02-26T12:29:48.307Z,35.48
2019-02-26T12:32:35.951Z,35.48
2019-02-26T12:35:25.285Z,34.55
2019-02-26T12:38:18.788Z,31.40
2019-02-26T12:41:08.176Z,32.78
2019-02-26T12:43:53.877Z,32.78
2019-02-26T12:46:42.040Z,32.97
2019-02-26T12:49:33.252Z,32.22
2019-02-26T12:52:21.881Z,32.12
2019-02-26T12:55:11.814Z,30.16
2019-02-26T12:58:00.269Z,28.91
2019-02-26T13:00:48.600Z,27.27
2019-02-26T13:03:39.790Z,27.30
2019-02-26T13:06:27.462Z,27.30
2019-02-26T13:09:16.196Z,27.53
2019-02-26T13:12:07.499Z,27.33
2019-02-26T13:15:02.450Z,28.24
2019-02-26T13:17:48.898Z,28.08
2019-02-26T13:20:35.979Z,27.12
2019-02-26T13:23:24.119Z,27.27
2019-02-26T13:26:14.410Z,28.54
2019-02-26T13:29:02.271Z,27.31
2019-02-26T13:31:56.547Z,28.71
2019-02-26T13:34:40.882Z,26.80
2019-02-26T13:37:34.668Z,26.42
2019-02-26T13:40:21.035Z,27.76
2019-02-26T13:43:10.100Z,27.23
2019-02-26T13:45:58.534Z,26.61
2019-02-26T13:48:47.016Z,27.72
2019-02-26T13:51:36.239Z,27.53
2019-02-26T13:54:25.392Z,27.05
2019-02-26T13:57:13.856Z,26.70
2019-02-26T14:00:03.408Z,27.11
2019-02-26T14:02:52.189Z,27.85
2019-02-26T14:05:40.593Z,27.21
2019-02-26T14:08:29.016Z,27.90
2019-02-26T14:11:18.005Z,27.78
2019-02-26T14:14:06.288Z,27.94
2019-02-26T14:16:54.852Z,28.44
2019-02-26T14:19:43.862Z,29.15
2019-02-26T14:22:32.998Z,29.55
2019-02-26T14:25:21.494Z,30.48
2019-02-26T14:28:10.209Z,30.04
2019-02-26T14:30:58.635Z,30.80
2019-02-26T14:33:47.304Z,29.98
2019-02-26T14:36:36.094Z,30.54
2019-02-26T14:39:25.228Z,31.05
2019-02-26T14:42:14.060Z,31.40
2019-02-26T14:45:02.799Z,31.66
2019-02-26T14:47:51.899Z,31.32
2019-02-26T14:50:40.738Z,32.51
2019-02-26T14:53:29.730Z,31.82
2019-02-26T14:56:17.927Z,32.92
2019-02-26T14:59:06.592Z,32.99
2019-02-26T15:01:54.976Z,32.85
2019-02-26T15:04:43.461Z,32.85
2019-02-26T15:07:31.727Z,33.90
2019-02-26T15:10:20.692Z,32.92
2019-02-26T15:13:09.566Z,32.51
2019-02-26T15:15:58.572Z,33.60
2019-02-26T15:18:47.242Z,33.60
2019-02-26T15:21:35.949Z,33.93
2019-02-26T15:24:25.280Z,33.64
2019-02-26T15:27:13.962Z,34.46
2019-02-26T15:30:02.237Z,34.09
2019-02-26T15:32:51.044Z,33.85
2019-02-26T15:35:39.947Z,34.20
2019-02-26T15:38:28.536Z,33.20
2019-02-26T15:41:16.836Z,32.55
2019-02-26T15:44:05.649Z,32.21
2019-02-26T15:46:55.023Z,31.54
2019-02-26T15:49:43.869Z,31.25
2019-02-26T15:52:32.557Z,31.35
2019-02-26T15:55:21.548Z,31.74
2019-02-26T15:58:11.621Z,31.37
2019-02-26T16:01:00.567Z,32.01
2019-02-26T16:03:49.348Z,32.42
2019-02-26T16:06:38.345Z,32.65
2019-02-26T16:09:27.567Z,33.28
2019-02-26T16:12:16.369Z,33.23
2019-02-26T16:15:07.974Z,33.96
2019-02-26T16:17:58.098Z,35.65
2019-02-26T16:20:45.817Z,36.02
2019-02-26T16:23:34.501Z,35.02
2019-02-26T16:26:23.251Z,35.08
2019-02-26T16:29:11.910Z,34.67
2019-02-26T16:32:02.645Z,34.70
2019-02-26T16:34:52.488Z,35.62
2019-02-26T16:37:41.598Z,36.35
2019-02-26T16:40:32.261Z,36.08
2019-02-26T16:43:21.292Z,35.87
2019-02-26T16:46:09.821Z,36.24
2019-02-26T16:48:58.821Z,37.39
2019-02-26T16:51:47.677Z,38.53
2019-02-26T16:54:36.272Z,39.53
2019-02-26T16:57:25.725Z,39.86
2019-02-26T17:00:17.110Z,39.27
2019-02-26T17:03:07.094Z,39.88
2019-02-26T17:05:56.420Z,40.61
2019-02-26T17:08:47.331Z,40.71
2019-02-26T17:11:35.426Z,40.57
2019-02-26T17:14:24.046Z,40.58
2019-02-26T17:17:12.573Z,41.79
2019-02-26T17:20:01.630Z,42.58
2019-02-26T17:22:50.094Z,42.67
2019-02-26T17:25:38.648Z,42.64
2019-02-26T17:28:27.260Z,42.16
2019-02-26T17:31:16.160Z,43.07
2019-02-26T17:34:05.464Z,42.72
2019-02-26T17:36:53.547Z,43.11
2019-02-26T17:39:42.086Z,43.36
2019-02-26T17:42:31.025Z,43.94
2019-02-26T17:45:20.150Z,44.08
2019-02-26T17:48:08.591Z,44.54
2019-02-26T17:50:57.944Z,44.06
2019-02-26T17:53:47.021Z,44.45
2019-02-26T17:56:35.602Z,44.91
2019-02-26T17:59:24.121Z,45.46
2019-02-26T18:02:12.854Z,46.01
2019-02-26T18:05:01.910Z,46.36
2019-02-26T18:07:50.380Z,46.74
2019-02-26T18:10:39.586Z,46.89
2019-02-26T18:13:28.684Z,47.33
2019-02-26T18:16:20.041Z,47.16
2019-02-26T18:19:12.147Z,47.03
2019-02-26T18:21:58.783Z,47.67
2019-02-26T18:24:47.860Z,47.36
2019-02-26T18:27:36.883Z,47.25
2019-02-26T18:30:27.360Z,47.64
2019-02-26T18:33:16.320Z,47.42
2019-02-26T18:36:05.758Z,48.17
2019-02-26T18:38:54.917Z,48.21
2019-02-26T18:41:50.513Z,48.87
2019-02-26T18:44:33.976Z,49.10
2019-02-26T18:47:22.923Z,49.03
2019-02-26T18:50:12.010Z,49.47
2019-02-26T18:53:02.403Z,49.42
2019-02-26T18:55:51.174Z,49.74
2019-02-26T18:58:40.148Z,49.88
2019-02-26T19:01:30.799Z,50.15
2019-02-26T19:04:19.367Z,50.33
2019-02-26T19:07:08.363Z,50.43
2019-02-26T19:09:57.821Z,50.30
2019-02-26T19:12:46.498Z,50.68
2019-02-26T19:15:35.160Z,51.00
2019-02-26T19:18:23.811Z,51.30
2019-02-26T19:21:12.386Z,50.78
2019-02-26T19:24:04.418Z,50.95
2019-02-26T19:26:51.904Z,50.98
2019-02-26T19:29:40.790Z,50.98
2019-02-26T19:32:29.244Z,51.08
2019-02-26T19:35:17.841Z,51.27
2019-02-26T19:38:11.846Z,51.56
2019-02-26T19:41:05.370Z,51.07
2019-02-26T19:43:54.338Z,51.75
2019-02-26T19:46:43.347Z,51.53
2019-02-26T19:49:32.377Z,51.42
2019-02-26T19:52:21.951Z,51.86
2019-02-26T19:55:16.874Z,52.18
2019-02-26T19:58:07.347Z,52.39
2019-02-26T20:00:57.830Z,52.24
2019-02-26T20:03:46.493Z,52.45
2019-02-26T20:06:35.332Z,52.65
2019-02-26T20:09:24.461Z,52.75
2019-02-26T20:12:13.607Z,52.78
2019-02-26T20:15:02.417Z,53.25
2019-02-26T20:17:51.193Z,53.07
2019-02-26T20:20:41.031Z,53.27
2019-02-26T20:23:30.774Z,52.87
2019-02-26T20:26:20.491Z,52.63
2019-02-26T20:29:09.168Z,52.74
2019-02-26T20:31:58.282Z,52.97
2019-02-26T20:34:47.018Z,53.09
2019-02-26T20:37:36.342Z,53.24
2019-02-26T20:40:25.147Z,53.55
2019-02-26T20:43:13.894Z,53.71
2019-02-26T20:46:03.053Z,54.01
2019-02-26T20:48:52.414Z,53.50
2019-02-26T20:51:41.668Z,53.99
2019-02-26T20:54:30.601Z,54.03
2019-02-26T20:57:19.506Z,54.27
2019-02-26T21:00:10.312Z,54.15
2019-02-26T21:02:58.885Z,54.25
2019-02-26T21:05:47.940Z,54.30
2019-02-26T21:08:36.362Z,54.51
2019-02-26T21:11:25.289Z,54.89
2019-02-26T21:14:13.976Z,54.97
2019-02-26T21:17:02.872Z,55.06
2019-02-26T21:19:51.992Z,54.60
2019-02-26T21:22:40.981Z,54.57
2019-02-26T21:25:29.444Z,54.80
2019-02-26T21:28:18.500Z,55.87
2019-02-26T21:31:07.777Z,55.25
2019-02-26T21:33:57.084Z,55.25
2019-02-26T21:36:46.643Z,54.95
2019-02-26T21:39:35.245Z,55.57
2019-02-26T21:42:23.906Z,55.23
2019-02-26T21:45:16.118Z,55.61
2019-02-26T21:48:03.971Z,55.68
2019-02-26T21:50:54.510Z,55.50
2019-02-26T21:53:43.126Z,55.75
2019-02-26T21:56:32.039Z,55.49
2019-02-26T21:59:21.153Z,55.43
2019-02-26T22:02:09.513Z,55.34
2019-02-26T22:04:58.011Z,55.39
2019-02-26T22:07:52.100Z,55.26
2019-02-26T22:10:40.212Z,55.68
2019-02-26T22:13:29.270Z,55.82
2019-02-26T22:16:18.819Z,55.40
2019-02-26T22:19:07.731Z,55.74
2019-02-26T22:21:56.844Z,55.96
2019-02-26T22:24:46.165Z,55.43
2019-02-26T22:27:36.163Z,55.69
2019-02-26T22:30:26.007Z,56.39
2019-02-26T22:33:14.182Z,56.32
2019-02-26T22:36:02.265Z,56.21
2019-02-26T22:38:50.381Z,55.80
2019-02-26T22:41:38.930Z,55.95
2019-02-26T22:44:27.221Z,55.66
2019-02-26T22:47:15.871Z,56.46
2019-02-26T22:50:05.370Z,56.54
2019-02-26T22:52:54.144Z,56.39
2019-02-26T22:55:42.403Z,56.73
2019-02-26T22:58:35.650Z,56.55
2019-02-26T23:01:30.774Z,56.70
2019-02-26T23:04:19.634Z,56.90
2019-02-26T23:07:10.020Z,56.50
2019-02-26T23:09:59.227Z,56.56
2019-02-26T23:12:48.401Z,56.56
2019-02-26T23:15:37.236Z,56.53
2019-02-26T23:18:28.536Z,56.91
2019-02-26T23:21:16.291Z,56.93
2019-02-26T23:24:05.777Z,56.98
2019-02-26T23:26:55.286Z,56.85
2019-02-26T23:29:44.661Z,56.93
2019-02-26T23:32:33.429Z,57.05
2019-02-26T23:35:22.519Z,56.96
2019-02-26T23:38:11.060Z,57.01
2019-02-26T23:41:00.331Z,57.10
2019-02-26T23:43:49.686Z,57.15
2019-02-26T23:46:38.284Z,57.61
2019-02-26T23:49:27.170Z,57.66
2019-02-26T23:52:16.259Z,57.45
2019-02-26T23:55:05.547Z,57.70
2019-02-26T23:57:57.755Z,58.11
